Monday, April 23, 2018, 1:48 AM GMT
Back to Local

CYTZ, Toronto Island Airport Automated Reporting Station

Location: , , Canada Lat: 43.633
Local Time: 1:48 AM GMT ( 1:48 GMT) Lon: -79.4
Time Zone: GMT Elev: 252 ft

Show me the last for .
Show Coded

Time T Td Feel RH Dir Speed Gust Alt SLP Vis Weather Sky Remarks
2018-04-23 01:00 50 30 - 46 270° 2 - 30.39 30.40 9 CLR None
2018-04-23 00:00 52 21 - 29 270° 5 - 30.37 30.38 9 CLR None
2018-04-22 23:00 50 19 49 29 250° 3 - 30.37 30.38 9 CLR None
2018-04-22 22:00 50 21 49 31 240° 3 - 30.37 30.38 9 CLR None
2018-04-22 21:00 50 27 - 39 Variable 2 - 30.38 30.39 9 CLR None
2018-04-22 20:00 50 25 48 37 210° 6 - 30.39 30.40 9 CLR None
2018-04-22 19:00 50 27 47 39 170° 7 - 30.41 30.42 9 CLR None
2018-04-22 18:00 46 30 44 52 200° 6 - 30.42 30.44 9 CLR None
2018-04-22 17:00 46 30 44 52 200° 5 - 30.45 30.46 9 CLR None
2018-04-22 16:00 45 32 41 61 190° 6 - 30.46 30.47 9 CLR None
2018-04-22 15:00 43 32 39 65 190° 7 - 30.47 30.48 9 CLR None
2018-04-22 14:00 48 28 46 45 230° 5 - 30.46 30.47 9 CLR None
2018-04-22 13:00 48 25 - 39 280° 2 - 30.46 30.47 9 CLR None
2018-04-22 12:00 43 28 41 56 290° 3 - 30.44 30.45 9 CLR None
2018-04-22 11:00 37 28 - 69 320° 2 - 30.43 30.44 9 CLR None
2018-04-22 10:00 36 28 - 74 320° 2 - 30.41 30.42 9 CLR None
2018-04-22 09:00 37 32 - 80 - Calm - 30.41 30.42 9 CLR None
2018-04-22 08:00 37 32 - 80 - Calm - 30.40 30.41 9 CLR None
2018-04-22 07:00 39 32 - 75 60° 2 - 30.40 30.41 9 CLR None
2018-04-22 06:00 41 30 - 65 - Calm - 30.41 30.42 9 CLR None
2018-04-22 05:00 45 27 42 48 290° 5 - 30.41 30.42 9 CLR None
2018-04-22 04:00 46 27 45 45 300° 3 - 30.41 30.42 9 CLR None
2018-04-22 03:00 50 23 49 34 330° 3 - 30.41 30.42 9 CLR None
2018-04-22 02:00 52 23 - 32 330° 6 - 30.40 30.41 9 CLR None

Support USWX by starting your Amazon purchase here.